Time;durP1;ratioP1;P1;durP2;ratioP2;P2;SDS_P1;SDS_P2;PMS_P1;PMS_P2;Temp;Humidity;BMP_temperature;BMP_pressure;BME280_temperature;BME280_humidity;BME280_pressure;Samples;Min_cycle;Max_cycle;Signal;HPM_P1;HPM_P2
2021/07/09 00:01:54;;;;;;;3.67;2.40;;;16.20;99.90;;;;;;4975673;28;20085;-85
2021/07/09 00:04:21;;;;;;;4.20;3.15;;;16.20;99.90;;;;;;4969874;28;20054;-85
2021/07/09 00:06:47;;;;;;;3.42;2.95;;;16.20;99.90;;;;;;4972710;28;20030;-85
2021/07/09 00:09:13;;;;;;;3.55;3.25;;;16.20;99.90;;;;;;4966714;28;20055;-84
2021/07/09 00:11:41;;;;;;;3.10;2.78;;;16.20;99.90;;;;;;4945744;28;20034;-85
2021/07/09 00:14:09;;;;;;;3.47;3.17;;;16.10;99.90;;;;;;4972486;28;20053;-85
2021/07/09 00:16:36;;;;;;;4.05;3.65;;;16.10;99.90;;;;;;4970583;28;20522;-85
2021/07/09 00:19:04;;;;;;;4.00;3.03;;;16.20;99.90;;;;;;4951802;28;20488;-85
2021/07/09 00:21:31;;;;;;;3.58;2.70;;;16.10;99.90;;;;;;4985281;28;20049;-86
2021/07/09 00:23:58;;;;;;;4.45;3.40;;;16.10;99.90;;;;;;4970483;28;20031;-85
2021/07/09 00:26:24;;;;;;;3.22;2.92;;;16.10;99.90;;;;;;4968828;28;20049;-85
2021/07/09 00:28:50;;;;;;;3.50;3.00;;;16.10;99.90;;;;;;4947694;28;20038;-86
2021/07/09 00:31:16;;;;;;;3.03;2.80;;;16.10;99.90;;;;;;4949051;28;20039;-84
2021/07/09 00:33:41;;;;;;;4.45;3.80;;;16.10;99.90;;;;;;4941939;28;20035;-85
2021/07/09 00:36:07;;;;;;;3.80;3.35;;;16.10;99.90;;;;;;4975474;28;20038;-85
2021/07/09 00:38:33;;;;;;;5.45;3.65;;;16.10;99.90;;;;;;4954896;28;20031;-85
2021/07/09 00:40:59;;;;;;;5.00;4.22;;;16.10;99.90;;;;;;4935901;28;20045;-85
2021/07/09 00:43:25;;;;;;;4.10;3.70;;;16.10;99.90;;;;;;4957750;28;20485;-86
2021/07/09 00:45:51;;;;;;;3.88;3.40;;;16.10;99.90;;;;;;4974207;28;20026;-85
2021/07/09 00:48:17;;;;;;;3.85;3.53;;;16.10;99.90;;;;;;4984331;28;20043;-85
2021/07/09 00:50:43;;;;;;;4.47;4.07;;;16.10;99.90;;;;;;4964985;28;20534;-85
2021/07/09 00:53:08;;;;;;;4.25;3.85;;;16.10;99.90;;;;;;4971821;28;20092;-85
2021/07/09 00:55:34;;;;;;;6.50;4.30;;;16.10;99.90;;;;;;4954682;28;20039;-85
2021/07/09 00:58:01;;;;;;;4.40;3.33;;;16.10;99.90;;;;;;4970570;28;20138;-85
2021/07/09 01:00:29;;;;;;;3.33;3.03;;;16.10;99.90;;;;;;4957540;28;20117;-85
2021/07/09 01:02:56;;;;;;;3.40;2.58;;;16.10;99.90;;;;;;4965743;28;20165;-85
2021/07/09 01:05:21;;;;;;;3.30;2.97;;;16.10;99.90;;;;;;4966135;28;20150;-85
2021/07/09 01:07:48;;;;;;;4.57;2.95;;;16.10;99.90;;;;;;4971716;28;20058;-85
2021/07/09 01:10:17;;;;;;;3.30;3.00;;;16.10;99.90;;;;;;4941372;28;20073;-84
2021/07/09 01:12:45;;;;;;;3.30;3.00;;;16.10;99.90;;;;;;4946893;28;20062;-86
2021/07/09 01:15:33;;;;;;;3.17;2.88;;;16.10;99.90;;;;;;4983962;28;20422;-86
2021/07/09 01:18:10;;;;;;;5.40;3.72;;;16.10;99.90;;;;;;4970969;28;20031;-86
2021/07/09 01:20:36;;;;;;;6.43;5.35;;;16.00;99.90;;;;;;4956870;28;20038;-85
2021/07/09 01:23:02;;;;;;;12.73;6.05;;;16.10;99.90;;;;;;4971851;28;20031;-86
2021/07/09 01:25:30;;;;;;;6.30;5.20;;;16.10;99.90;;;;;;4960670;28;20030;-86
2021/07/09 01:27:59;;;;;;;7.63;5.93;;;16.10;99.90;;;;;;4953466;28;20145;-85
2021/07/09 01:30:26;;;;;;;6.43;5.45;;;16.10;99.90;;;;;;4977006;28;20085;-85
2021/07/09 01:32:53;;;;;;;9.23;6.63;;;16.10;99.90;;;;;;4971554;28;20050;-86
2021/07/09 01:35:27;;;;;;;4.93;4.43;;;16.10;99.90;;;;;;4966862;28;20038;-86
2021/07/09 01:38:08;;;;;;;5.85;4.82;;;16.10;99.90;;;;;;4973143;28;20031;-86
2021/07/09 01:40:36;;;;;;;5.63;4.95;;;16.10;99.90;;;;;;4961721;28;20030;-87
2021/07/09 01:43:03;;;;;;;6.72;4.53;;;16.10;99.90;;;;;;4988048;28;20058;-84
2021/07/09 01:45:38;;;;;;;6.00;4.88;;;16.10;99.90;;;;;;4960118;28;20034;-86
2021/07/09 01:48:05;;;;;;;7.63;5.35;;;16.10;99.90;;;;;;4974572;28;20126;-86
2021/07/09 01:50:31;;;;;;;7.43;5.45;;;16.10;99.90;;;;;;4979585;28;20045;-86
2021/07/09 01:53:03;;;;;;;14.65;5.88;;;16.10;99.90;;;;;;4983477;28;20093;-86
2021/07/09 01:55:31;;;;;;;5.22;4.55;;;16.10;99.90;;;;;;4966126;28;20118;-87
2021/07/09 01:57:57;;;;;;;8.77;5.60;;;16.10;99.90;;;;;;4966599;28;20105;-86
2021/07/09 02:00:25;;;;;;;8.02;5.95;;;16.10;99.90;;;;;;4984352;28;20054;-84
2021/07/09 02:02:51;;;;;;;7.28;5.55;;;16.00;99.90;;;;;;4985344;28;20416;-85
2021/07/09 02:05:19;;;;;;;6.65;5.72;;;16.00;99.90;;;;;;4975309;28;20031;-87
2021/07/09 02:07:47;;;;;;;8.50;6.65;;;16.10;99.90;;;;;;4960703;28;20052;-86
2021/07/09 02:10:15;;;;;;;8.32;5.82;;;16.00;99.90;;;;;;4960714;28;20038;-86
2021/07/09 02:12:41;;;;;;;8.55;5.97;;;16.00;99.90;;;;;;4957362;28;20456;-86
2021/07/09 02:15:15;;;;;;;8.38;5.90;;;16.10;99.90;;;;;;4992628;28;20085;-86
2021/07/09 02:17:42;;;;;;;10.57;6.35;;;16.10;99.90;;;;;;4970788;28;20177;-86
2021/07/09 02:20:10;;;;;;;6.97;5.53;;;16.00;99.90;;;;;;4972842;28;20026;-86
2021/07/09 02:22:36;;;;;;;7.82;5.95;;;16.10;99.90;;;;;;4972120;28;20027;-87
2021/07/09 02:25:05;;;;;;;7.85;5.10;;;16.00;99.90;;;;;;4984310;28;20034;-86
2021/07/09 02:27:36;;;;;;;5.47;4.95;;;16.00;99.90;;;;;;4973262;28;20507;-85
2021/07/09 02:30:07;;;;;;;5.32;4.75;;;16.00;99.90;;;;;;4979820;28;20752;-85
2021/07/09 02:32:36;;;;;;;5.82;4.88;;;16.00;99.90;;;;;;4961594;28;20035;-86
2021/07/09 02:35:03;;;;;;;5.63;4.82;;;16.00;99.90;;;;;;4953690;28;20066;-86
2021/07/09 02:37:29;;;;;;;5.30;4.57;;;16.00;99.90;;;;;;4990845;28;20029;-86
2021/07/09 02:39:55;;;;;;;5.07;4.10;;;16.00;99.90;;;;;;4957311;28;20113;-86
2021/07/09 02:42:21;;;;;;;5.60;4.20;;;16.10;99.90;;;;;;4968076;28;20052;-85
2021/07/09 02:44:47;;;;;;;4.35;3.95;;;16.10;99.90;;;;;;4968599;28;20485;-86
2021/07/09 02:47:13;;;;;;;5.63;5.03;;;16.10;99.90;;;;;;4952616;28;20101;-86
2021/07/09 02:49:39;;;;;;;3.80;3.42;;;16.10;99.90;;;;;;4968760;28;20031;-85
2021/07/09 02:52:06;;;;;;;4.43;3.28;;;16.10;99.90;;;;;;4982570;28;20058;-86
2021/07/09 02:54:32;;;;;;;4.07;3.67;;;16.10;99.90;;;;;;4960225;28;20019;-85
2021/07/09 02:56:57;;;;;;;3.88;3.47;;;16.10;99.90;;;;;;4986801;28;20100;-86
2021/07/09 02:59:23;;;;;;;5.50;3.10;;;16.10;99.90;;;;;;4966618;28;20035;-85
2021/07/09 03:01:49;;;;;;;3.20;2.90;;;16.10;99.90;;;;;;4965915;28;20030;-86
2021/07/09 03:04:15;;;;;;;3.20;2.90;;;16.10;99.90;;;;;;4967251;28;20065;-86
2021/07/09 03:06:41;;;;;;;3.13;2.75;;;16.00;99.90;;;;;;4959583;28;20069;-85
2021/07/09 03:09:08;;;;;;;3.35;2.47;;;16.10;99.90;;;;;;4968296;28;20035;-85
2021/07/09 03:11:34;;;;;;;2.60;2.40;;;16.00;99.90;;;;;;4969279;28;20037;-86
2021/07/09 03:14:01;;;;;;;3.25;2.65;;;16.00;99.90;;;;;;4967265;28;20046;-86
2021/07/09 03:16:30;;;;;;;2.78;2.47;;;16.10;99.90;;;;;;4959987;28;20014;-85
2021/07/09 03:18:56;;;;;;;2.80;2.50;;;16.00;99.90;;;;;;4966762;28;20030;-86
2021/07/09 03:21:22;;;;;;;3.78;2.55;;;16.10;99.90;;;;;;4981974;28;20031;-85
2021/07/09 03:23:50;;;;;;;3.35;3.05;;;16.10;99.90;;;;;;4985033;28;20493;-85
2021/07/09 03:26:16;;;;;;;2.40;2.20;;;16.10;99.90;;;;;;4961512;28;20038;-86
2021/07/09 03:28:42;;;;;;;2.78;2.58;;;16.00;99.90;;;;;;4954044;28;20039;-86
2021/07/09 03:31:08;;;;;;;2.60;2.40;;;16.00;99.90;;;;;;4970859;28;20413;-85
2021/07/09 03:33:35;;;;;;;3.17;2.70;;;16.00;99.90;;;;;;4958602;28;20080;-85
2021/07/09 03:36:01;;;;;;;2.60;2.40;;;15.90;99.90;;;;;;4965145;28;20035;-85
2021/07/09 03:38:27;;;;;;;4.85;3.05;;;15.90;99.90;;;;;;4966844;28;20034;-85
2021/07/09 03:40:53;;;;;;;2.75;2.35;;;15.90;99.90;;;;;;4962642;28;20517;-85
2021/07/09 03:43:18;;;;;;;2.40;2.20;;;15.90;99.90;;;;;;4971831;28;20023;-85
2021/07/09 03:45:44;;;;;;;6.53;2.60;;;15.90;99.90;;;;;;4972944;28;20034;-85
2021/07/09 03:48:10;;;;;;;2.60;2.40;;;15.80;99.90;;;;;;4954746;28;20030;-85
2021/07/09 03:50:35;;;;;;;3.95;1.88;;;15.80;99.90;;;;;;4948442;28;20481;-85
2021/07/09 03:53:01;;;;;;;2.50;2.30;;;15.80;99.90;;;;;;4970365;28;20038;-85
2021/07/09 03:55:27;;;;;;;2.80;2.53;;;15.80;99.90;;;;;;4966947;28;20034;-85
2021/07/09 03:57:53;;;;;;;2.92;2.72;;;15.80;99.90;;;;;;4950538;28;20560;-85
2021/07/09 04:00:18;;;;;;;2.58;2.38;;;15.80;99.90;;;;;;4965949;28;20027;-85
2021/07/09 04:02:44;;;;;;;2.53;2.30;;;15.80;99.90;;;;;;4960657;28;20035;-85
2021/07/09 04:05:11;;;;;;;2.30;2.10;;;15.80;99.90;;;;;;4978652;28;20030;-85
2021/07/09 04:07:40;;;;;;;3.33;2.30;;;15.80;99.90;;;;;;4972941;28;20577;-85
2021/07/09 04:10:07;;;;;;;2.20;2.10;;;15.80;99.90;;;;;;4963824;28;20038;-84
2021/07/09 04:12:33;;;;;;;2.88;2.60;;;15.80;99.90;;;;;;4950744;28;20537;-85
2021/07/09 04:14:59;;;;;;;1.92;1.83;;;15.80;99.90;;;;;;4970127;28;20038;-85
2021/07/09 04:17:24;;;;;;;2.10;1.88;;;15.90;99.90;;;;;;4969046;28;20037;-85
2021/07/09 04:19:51;;;;;;;2.00;1.90;;;15.90;99.90;;;;;;4956392;28;20088;-85
2021/07/09 04:22:18;;;;;;;2.40;2.20;;;15.90;99.90;;;;;;4938883;28;20065;-84
2021/07/09 04:24:44;;;;;;;1.88;1.77;;;15.90;99.90;;;;;;4979861;28;20477;-84
2021/07/09 04:27:10;;;;;;;2.28;1.48;;;15.90;99.90;;;;;;4982096;28;20081;-84
2021/07/09 04:29:36;;;;;;;1.98;1.77;;;15.90;99.90;;;;;;4968384;28;20073;-84
2021/07/09 04:32:02;;;;;;;1.70;1.60;;;15.90;99.90;;;;;;4967087;28;20513;-85
2021/07/09 04:34:28;;;;;;;1.73;1.63;;;15.90;99.90;;;;;;4973061;28;20053;-85
2021/07/09 04:36:54;;;;;;;2.13;2.03;;;15.90;99.90;;;;;;4973531;28;20034;-84
2021/07/09 04:39:19;;;;;;;3.08;1.73;;;15.90;99.90;;;;;;4969714;28;20378;-85
2021/07/09 04:41:45;;;;;;;1.80;1.70;;;15.90;99.90;;;;;;4987851;28;20045;-84
2021/07/09 04:44:11;;;;;;;1.73;1.63;;;15.90;99.90;;;;;;4971229;28;20039;-84
2021/07/09 04:46:37;;;;;;;1.58;1.48;;;16.00;99.90;;;;;;4985864;28;20039;-84
2021/07/09 04:49:02;;;;;;;1.80;1.38;;;16.00;99.90;;;;;;4951203;28;20053;-84
2021/07/09 04:51:28;;;;;;;1.60;1.50;;;16.00;99.90;;;;;;4945739;28;20031;-84
2021/07/09 04:53:54;;;;;;;2.35;1.30;;;16.00;99.90;;;;;;4967992;28;20026;-85
2021/07/09 04:56:19;;;;;;;1.55;1.45;;;16.00;99.90;;;;;;4957603;28;20038;-84
2021/07/09 04:58:45;;;;;;;1.45;1.35;;;15.90;99.90;;;;;;4955889;28;20027;-85
2021/07/09 05:01:12;;;;;;;1.50;1.40;;;15.90;99.90;;;;;;4934593;28;20497;-84
2021/07/09 05:03:38;;;;;;;1.35;1.25;;;15.90;99.90;;;;;;4966972;28;20118;-83
2021/07/09 05:06:04;;;;;;;1.48;1.38;;;15.90;99.90;;;;;;4947740;28;20132;-83
2021/07/09 05:08:30;;;;;;;3.35;1.30;;;15.90;99.90;;;;;;4961925;28;20487;-83
2021/07/09 05:10:56;;;;;;;1.50;1.40;;;15.90;99.90;;;;;;4948940;28;20050;-83
2021/07/09 05:13:22;;;;;;;1.40;1.30;;;15.90;99.90;;;;;;4984417;28;20081;-83
2021/07/09 05:15:47;;;;;;;1.70;1.60;;;15.90;99.90;;;;;;4958337;28;20125;-83
2021/07/09 05:18:13;;;;;;;1.48;1.38;;;15.90;99.90;;;;;;4977380;28;20038;-83
2021/07/09 05:20:39;;;;;;;1.35;1.25;;;15.90;99.90;;;;;;4955115;28;20031;-83
2021/07/09 05:23:05;;;;;;;1.45;1.30;;;15.90;99.90;;;;;;4960451;28;20031;-83
2021/07/09 05:25:31;;;;;;;1.20;1.10;;;15.90;99.90;;;;;;4958139;28;20401;-83
2021/07/09 05:27:59;;;;;;;1.48;1.38;;;15.90;99.90;;;;;;4968949;28;21002;-84
2021/07/09 05:30:25;;;;;;;1.73;1.20;;;15.90;99.90;;;;;;4964340;28;20044;-85
2021/07/09 05:32:51;;;;;;;1.20;1.10;;;15.90;99.90;;;;;;4980729;28;20657;-85
2021/07/09 05:35:16;;;;;;;3.20;1.10;;;15.90;99.90;;;;;;4965477;28;20031;-85
2021/07/09 05:37:42;;;;;;;1.17;1.10;;;15.90;99.90;;;;;;4979282;28;20481;-84
2021/07/09 05:40:09;;;;;;;2.30;1.20;;;15.90;99.90;;;;;;4994031;28;20501;-86
2021/07/09 05:42:35;;;;;;;0.88;0.88;;;15.90;99.90;;;;;;4955657;28;20370;-85
2021/07/09 05:45:01;;;;;;;1.35;1.13;;;15.90;99.90;;;;;;4972894;28;20045;-85
2021/07/09 05:47:26;;;;;;;0.93;0.90;;;16.00;99.90;;;;;;4982598;28;20676;-85
2021/07/09 05:49:53;;;;;;;1.10;0.82;;;16.00;99.90;;;;;;4957397;28;20050;-86
2021/07/09 05:52:19;;;;;;;1.38;1.02;;;16.00;99.90;;;;;;4961871;28;20034;-86
2021/07/09 05:54:45;;;;;;;0.77;0.75;;;16.10;99.90;;;;;;4976965;28;20085;-85
2021/07/09 05:57:11;;;;;;;2.15;1.13;;;16.10;99.90;;;;;;4968599;28;20039;-85
2021/07/09 05:59:38;;;;;;;0.90;0.90;;;16.10;99.90;;;;;;4948325;28;20390;-85
2021/07/09 06:02:04;;;;;;;1.65;0.68;;;16.10;99.90;;;;;;4972042;28;20038;-85
2021/07/09 06:04:30;;;;;;;1.08;0.98;;;16.10;99.90;;;;;;4957872;28;20720;-85
2021/07/09 06:06:56;;;;;;;0.80;0.80;;;16.10;99.90;;;;;;4986961;28;20026;-85
2021/07/09 06:09:22;;;;;;;1.00;0.90;;;16.10;99.90;;;;;;4971460;28;20093;-85
2021/07/09 06:11:48;;;;;;;2.67;0.90;;;16.20;99.90;;;;;;4953443;28;20089;-85
2021/07/09 06:14:14;;;;;;;0.90;0.90;;;16.10;99.90;;;;;;4985839;28;20022;-86
2021/07/09 06:16:40;;;;;;;1.13;0.80;;;16.20;99.90;;;;;;4972807;28;20041;-85
2021/07/09 06:19:05;;;;;;;2.58;1.02;;;16.20;99.90;;;;;;4940625;28;20031;-86
2021/07/09 06:21:31;;;;;;;1.80;1.13;;;16.20;99.90;;;;;;4967945;28;20042;-86
2021/07/09 06:23:57;;;;;;;1.20;1.10;;;16.20;99.90;;;;;;4980754;28;20157;-84
2021/07/09 06:26:23;;;;;;;1.08;1.00;;;16.20;99.90;;;;;;4968477;28;20417;-85
2021/07/09 06:28:49;;;;;;;1.33;1.10;;;16.30;99.90;;;;;;4971362;28;20026;-85
2021/07/09 06:31:15;;;;;;;1.10;1.02;;;16.40;99.90;;;;;;4963791;28;20039;-85
2021/07/09 06:33:41;;;;;;;1.10;1.08;;;16.40;99.90;;;;;;4972344;28;20079;-85
2021/07/09 06:36:07;;;;;;;1.65;1.10;;;16.40;99.90;;;;;;4979855;28;20039;-85
2021/07/09 06:38:33;;;;;;;1.10;1.10;;;16.30;99.90;;;;;;4964816;28;20041;-85
2021/07/09 06:40:59;;;;;;;1.17;1.08;;;16.30;99.90;;;;;;4957885;28;20456;-85
2021/07/09 06:43:24;;;;;;;1.95;0.98;;;16.30;99.90;;;;;;4971485;28;20040;-85
2021/07/09 06:45:50;;;;;;;1.10;1.00;;;16.30;99.90;;;;;;4965004;28;20121;-86
2021/07/09 06:48:16;;;;;;;1.48;1.10;;;16.30;99.90;;;;;;4960093;28;20480;-85
2021/07/09 06:50:42;;;;;;;1.13;0.90;;;16.30;99.90;;;;;;4961760;28;20093;-85
2021/07/09 06:53:07;;;;;;;4.18;0.93;;;16.30;99.90;;;;;;4954003;28;20042;-85
2021/07/09 06:55:34;;;;;;;0.77;0.73;;;16.20;99.90;;;;;;4935676;28;20034;-86
2021/07/09 06:57:59;;;;;;;0.98;0.85;;;16.10;99.90;;;;;;4956209;28;20034;-84
2021/07/09 07:00:26;;;;;;;1.92;0.88;;;16.00;99.90;;;;;;4963750;28;20023;-85
2021/07/09 07:02:52;;;;;;;0.85;0.85;;;16.00;99.90;;;;;;4971802;28;20030;-86
2021/07/09 07:05:18;;;;;;;2.13;0.82;;;16.00;99.90;;;;;;4965579;28;20096;-85
2021/07/09 07:07:44;;;;;;;2.28;0.90;;;16.00;99.90;;;;;;4969330;28;20038;-84
2021/07/09 07:10:11;;;;;;;1.88;0.70;;;16.00;99.90;;;;;;4964697;28;20093;-85
2021/07/09 07:12:38;;;;;;;1.08;1.00;;;16.00;99.90;;;;;;4964155;28;20109;-85
2021/07/09 07:15:05;;;;;;;1.95;0.90;;;16.00;99.90;;;;;;4970030;28;20165;-84
2021/07/09 07:17:31;;;;;;;1.25;0.75;;;16.10;99.90;;;;;;4984776;28;20033;-84
2021/07/09 07:19:57;;;;;;;0.73;0.73;;;16.20;99.90;;;;;;4968994;28;20106;-85
2021/07/09 07:22:23;;;;;;;0.80;0.80;;;16.20;99.90;;;;;;4937228;28;20101;-84
2021/07/09 07:24:51;;;;;;;1.85;0.82;;;16.30;99.90;;;;;;4985443;28;20037;-84
2021/07/09 07:27:21;;;;;;;0.80;0.80;;;16.40;99.90;;;;;;4961073;28;20401;-85
2021/07/09 07:29:47;;;;;;;1.23;0.80;;;16.50;99.90;;;;;;4975462;28;20077;-84
2021/07/09 07:32:14;;;;;;;0.75;0.75;;;16.60;99.90;;;;;;4969434;28;20035;-84
2021/07/09 07:34:40;;;;;;;2.20;0.90;;;16.60;99.90;;;;;;4961497;28;20041;-84
2021/07/09 07:37:08;;;;;;;0.82;0.82;;;16.70;99.90;;;;;;4965681;28;20094;-85
2021/07/09 07:39:34;;;;;;;0.82;0.80;;;16.80;99.90;;;;;;4970846;28;20026;-84
2021/07/09 07:42:00;;;;;;;0.77;0.77;;;16.80;99.90;;;;;;4973905;28;20468;-84
2021/07/09 07:44:27;;;;;;;0.88;0.88;;;16.80;99.90;;;;;;4969019;28;20049;-85
2021/07/09 07:46:54;;;;;;;0.98;0.93;;;16.80;99.90;;;;;;4972775;28;20041;-84
2021/07/09 07:49:22;;;;;;;0.98;0.82;;;16.70;99.90;;;;;;4973187;28;20038;-84
2021/07/09 07:51:51;;;;;;;0.70;0.70;;;16.70;99.90;;;;;;4971283;28;20050;-84
2021/07/09 07:54:18;;;;;;;0.77;0.77;;;16.70;99.90;;;;;;4984187;28;20038;-83
2021/07/09 07:56:44;;;;;;;0.60;0.60;;;16.60;99.90;;;;;;4976422;28;20031;-82
2021/07/09 07:59:10;;;;;;;0.70;0.70;;;16.60;99.90;;;;;;4983613;28;20027;-83
2021/07/09 08:01:36;;;;;;;0.90;0.63;;;16.50;99.90;;;;;;4966745;28;20107;-82
2021/07/09 08:04:02;;;;;;;0.85;0.50;;;16.50;99.90;;;;;;4954027;28;20044;-83
2021/07/09 08:06:28;;;;;;;0.57;0.57;;;16.60;99.90;;;;;;4971035;28;20037;-82
2021/07/09 08:08:54;;;;;;;1.15;0.47;;;16.60;99.90;;;;;;4964933;28;20379;-83
2021/07/09 08:11:20;;;;;;;1.50;0.40;;;16.60;99.90;;;;;;4971413;28;20640;-82
2021/07/09 08:13:45;;;;;;;0.40;0.40;;;16.60;99.90;;;;;;4972870;28;20027;-83
2021/07/09 08:16:11;;;;;;;0.60;0.60;;;16.70;99.90;;;;;;4965155;28;20074;-83
2021/07/09 08:18:37;;;;;;;0.30;0.30;;;16.70;99.90;;;;;;4958746;28;20035;-83
2021/07/09 08:21:04;;;;;;;0.47;0.47;;;16.80;99.90;;;;;;4960031;28;20078;-82
2021/07/09 08:23:30;;;;;;;0.35;0.35;;;16.90;99.90;;;;;;4959599;28;20654;-82
2021/07/09 08:25:57;;;;;;;0.82;0.40;;;16.90;99.90;;;;;;4963703;28;20058;-82
2021/07/09 08:28:25;;;;;;;0.30;0.30;;;16.90;99.90;;;;;;4971314;28;20027;-82
2021/07/09 08:30:51;;;;;;;0.28;0.28;;;17.00;99.90;;;;;;4963829;28;20031;-82
2021/07/09 08:33:17;;;;;;;0.40;0.40;;;17.10;99.90;;;;;;4978542;28;20035;-82
2021/07/09 08:35:43;;;;;;;0.28;0.28;;;17.20;99.90;;;;;;4977583;28;20057;-82
2021/07/09 08:38:09;;;;;;;0.68;0.30;;;17.40;99.90;;;;;;4965872;28;20058;-81
2021/07/09 08:40:36;;;;;;;2.08;0.20;;;17.70;99.90;;;;;;4969433;28;20031;-82
2021/07/09 08:43:02;;;;;;;0.20;0.20;;;17.90;99.90;;;;;;4930235;28;20088;-82
2021/07/09 08:45:28;;;;;;;0.75;0.30;;;18.10;99.90;;;;;;4947472;28;20034;-82
2021/07/09 08:47:55;;;;;;;0.28;0.20;;;18.10;99.90;;;;;;4934349;28;20045;-81
2021/07/09 08:50:20;;;;;;;0.22;0.22;;;18.10;99.90;;;;;;4979546;28;20027;-82
2021/07/09 08:52:47;;;;;;;0.20;0.20;;;18.00;99.90;;;;;;4984203;28;20027;-82
2021/07/09 08:55:13;;;;;;;0.22;0.22;;;18.00;99.90;;;;;;4966485;28;20066;-82
2021/07/09 08:57:43;;;;;;;0.30;0.20;;;17.90;99.90;;;;;;4967432;28;20073;-82
2021/07/09 09:00:33;;;;;;;0.20;0.20;;;17.80;99.90;;;;;;4965993;28;20092;-84
2021/07/09 09:03:00;;;;;;;0.20;0.20;;;17.70;99.90;;;;;;4957969;28;20034;-82
2021/07/09 09:05:28;;;;;;;0.50;0.50;;;17.70;99.90;;;;;;4967217;28;20082;-84
2021/07/09 09:08:00;;;;;;;0.32;0.32;;;17.70;99.90;;;;;;4948343;28;20037;-82
2021/07/09 09:10:35;;;;;;;0.50;0.50;;;17.60;99.90;;;;;;4963279;28;20038;-82
2021/07/09 09:13:11;;;;;;;0.80;0.80;;;17.50;99.90;;;;;;4956638;28;20544;-81
2021/07/09 09:15:42;;;;;;;0.40;0.40;;;17.50;99.90;;;;;;4952309;28;20054;-81
2021/07/09 09:18:25;;;;;;;0.60;0.60;;;17.50;99.90;;;;;;4948999;28;20034;-81
2021/07/09 09:20:58;;;;;;;0.65;0.50;;;17.50;99.90;;;;;;4955843;28;20034;-81
2021/07/09 09:23:26;;;;;;;0.40;0.40;;;17.50;99.90;;;;;;4981162;28;20050;-81
2021/07/09 09:25:52;;;;;;;0.68;0.68;;;17.50;99.90;;;;;;4955754;28;20409;-83
2021/07/09 09:28:19;;;;;;;0.98;0.70;;;17.50;99.90;;;;;;4946260;28;20035;-83
2021/07/09 09:30:48;;;;;;;0.68;0.68;;;17.50;99.90;;;;;;4954289;28;20031;-83
2021/07/09 09:33:14;;;;;;;0.60;0.60;;;17.50;99.90;;;;;;4969529;28;20040;-82
2021/07/09 09:35:43;;;;;;;0.98;0.98;;;17.40;99.90;;;;;;4967675;28;20109;-81
2021/07/09 09:38:11;;;;;;;0.70;0.70;;;17.40;99.90;;;;;;4987076;28;20030;-82
2021/07/09 09:40:38;;;;;;;1.23;0.90;;;17.20;99.90;;;;;;4965407;28;20035;-82
2021/07/09 09:43:10;;;;;;;0.63;0.63;;;17.20;99.90;;;;;;4962000;28;20039;-83
2021/07/09 09:45:37;;;;;;;0.82;0.82;;;17.00;99.90;;;;;;4966779;28;20030;-83
2021/07/09 09:48:14;;;;;;;0.70;0.70;;;17.00;99.90;;;;;;4986254;28;20027;-83
2021/07/09 09:50:43;;;;;;;1.05;1.00;;;16.90;99.90;;;;;;4966703;28;20041;-83
2021/07/09 09:53:09;;;;;;;0.90;0.90;;;16.80;99.90;;;;;;4967622;28;20076;-83
2021/07/09 09:55:35;;;;;;;1.83;1.00;;;16.70;99.90;;;;;;4966964;28;20672;-82
2021/07/09 09:58:21;;;;;;;0.80;0.80;;;16.70;99.90;;;;;;4954536;28;20042;-83
2021/07/09 10:00:49;;;;;;;0.70;0.70;;;16.70;99.90;;;;;;4961792;28;20089;-83
2021/07/09 10:03:16;;;;;;;1.10;1.00;;;16.60;99.90;;;;;;4965662;28;20039;-83
2021/07/09 10:05:44;;;;;;;0.98;0.98;;;16.60;99.90;;;;;;4969164;28;20034;-82
2021/07/09 10:08:15;;;;;;;1.02;0.93;;;16.50;99.90;;;;;;4968002;28;20035;-83
2021/07/09 10:10:42;;;;;;;1.17;1.08;;;16.50;99.90;;;;;;4957487;28;20030;-83
2021/07/09 10:13:10;;;;;;;1.92;0.80;;;16.50;99.90;;;;;;4978647;28;20046;-83
2021/07/09 10:15:39;;;;;;;0.88;0.88;;;16.50;99.90;;;;;;4954475;28;20109;-82
2021/07/09 10:18:09;;;;;;;0.75;0.75;;;16.40;99.90;;;;;;4988565;28;20038;-82
2021/07/09 10:20:34;;;;;;;1.08;0.93;;;16.50;99.90;;;;;;4969502;28;20114;-82
2021/07/09 10:23:01;;;;;;;0.93;0.93;;;16.40;99.90;;;;;;4968724;28;20504;-82
2021/07/09 10:25:27;;;;;;;0.98;0.80;;;16.40;99.90;;;;;;4940255;28;20038;-83
2021/07/09 10:27:54;;;;;;;3.63;0.80;;;16.30;99.90;;;;;;4948886;28;20034;-82
2021/07/09 10:30:19;;;;;;;2.33;0.93;;;16.30;99.90;;;;;;4951073;28;20039;-82
2021/07/09 10:32:48;;;;;;;0.90;0.90;;;16.20;99.90;;;;;;4960768;28;20027;-83
2021/07/09 10:35:35;;;;;;;1.13;0.85;;;16.20;99.90;;;;;;4971174;28;20033;-82
2021/07/09 10:38:37;;;;;;;0.75;0.75;;;16.20;99.90;;;;;;5001083;28;20085;-82
2021/07/09 10:41:19;;;;;;;1.20;1.10;;;16.20;99.90;;;;;;4945179;28;20089;-82
2021/07/09 10:44:14;;;;;;;0.82;0.82;;;16.20;99.90;;;;;;4969931;28;20252;-82
2021/07/09 10:46:40;;;;;;;0.80;0.73;;;16.10;99.90;;;;;;4969870;28;20023;-82
2021/07/09 10:49:06;;;;;;;2.00;1.00;;;16.10;99.90;;;;;;4982925;28;20382;-82
2021/07/09 10:51:51;;;;;;;0.93;0.80;;;16.10;99.90;;;;;;4953372;28;20058;-83
2021/07/09 10:54:26;;;;;;;1.10;1.00;;;16.10;99.90;;;;;;4977195;28;20027;-83
2021/07/09 10:57:17;;;;;;;0.90;0.90;;;16.10;99.90;;;;;;4955210;28;20045;-84
2021/07/09 11:00:21;;;;;;;1.23;1.13;;;16.20;99.90;;;;;;5000183;28;20429;-84
2021/07/09 11:03:04;;;;;;;1.85;1.10;;;16.20;99.90;;;;;;4972672;28;20065;-83
2021/07/09 11:05:42;;;;;;;0.80;0.80;;;16.20;99.90;;;;;;4964630;28;20489;-83
2021/07/09 11:08:30;;;;;;;1.40;0.93;;;16.30;99.90;;;;;;4975167;28;20030;-83
2021/07/09 11:10:59;;;;;;;1.20;1.10;;;16.30;99.90;;;;;;4980620;28;20580;-82
2021/07/09 11:13:40;;;;;;;0.90;0.90;;;16.30;99.90;;;;;;4983059;28;20034;-83
2021/07/09 11:16:24;;;;;;;1.02;0.80;;;16.40;99.90;;;;;;4982073;28;20527;-83
2021/07/09 11:19:02;;;;;;;0.80;0.80;;;16.40;99.90;;;;;;4963035;28;20029;-83
2021/07/09 11:21:31;;;;;;;1.00;1.00;;;16.40;99.90;;;;;;4976787;28;20054;-82
2021/07/09 11:23:58;;;;;;;1.92;1.05;;;16.30;99.90;;;;;;4966368;28;20391;-83
2021/07/09 11:26:26;;;;;;;1.23;1.10;;;16.30;99.90;;;;;;4971127;28;20050;-82
2021/07/09 11:28:52;;;;;;;1.38;1.27;;;16.30;99.90;;;;;;4982136;28;20118;-83
2021/07/09 11:31:34;;;;;;;2.15;1.17;;;16.30;99.90;;;;;;4992444;28;20057;-82
2021/07/09 11:34:08;;;;;;;1.50;1.40;;;16.20;99.90;;;;;;4979929;28;20031;-82
2021/07/09 11:36:45;;;;;;;1.45;1.35;;;16.20;99.90;;;;;;4984981;28;20396;-82
2021/07/09 11:39:13;;;;;;;1.08;1.08;;;16.20;99.90;;;;;;4987052;28;20027;-82
2021/07/09 11:41:59;;;;;;;1.52;1.42;;;16.20;99.90;;;;;;4963374;28;20037;-82
2021/07/09 11:44:31;;;;;;;1.67;1.20;;;16.30;99.90;;;;;;4989691;28;20034;-82
2021/07/09 11:47:00;;;;;;;1.73;1.40;;;16.20;99.90;;;;;;4973734;28;20448;-83
2021/07/09 11:49:29;;;;;;;1.30;1.20;;;16.30;99.90;;;;;;4973544;28;20085;-83
2021/07/09 11:52:06;;;;;;;1.40;1.30;;;16.30;99.90;;;;;;4978330;28;20101;-82
2021/07/09 11:54:45;;;;;;;2.22;1.30;;;16.30;99.90;;;;;;4966152;28;20142;-82
2021/07/09 11:57:32;;;;;;;1.23;1.15;;;16.30;99.90;;;;;;4976428;28;20045;-83
2021/07/09 12:00:02;;;;;;;1.05;0.98;;;16.30;99.90;;;;;;4961037;28;20450;-83
2021/07/09 12:02:38;;;;;;;1.33;1.23;;;16.30;99.90;;;;;;4979487;28;20530;-82
2021/07/09 12:05:07;;;;;;;1.90;1.10;;;16.30;99.90;;;;;;4972908;28;20144;-82
2021/07/09 12:07:36;;;;;;;0.98;0.98;;;16.40;99.90;;;;;;5002112;28;20037;-82
2021/07/09 12:10:09;;;;;;;1.30;1.20;;;16.40;99.90;;;;;;4974039;28;20053;-82
2021/07/09 12:12:52;;;;;;;1.67;1.58;;;16.40;99.90;;;;;;4954491;28;20062;-83
2021/07/09 12:15:22;;;;;;;1.13;1.08;;;16.40;99.90;;;;;;4975563;28;20355;-82
2021/07/09 12:17:57;;;;;;;1.25;1.15;;;16.40;99.90;;;;;;4977947;28;20029;-82
2021/07/09 12:20:28;;;;;;;2.15;1.23;;;16.30;99.90;;;;;;4963275;28;20033;-82
2021/07/09 12:23:18;;;;;;;1.63;1.15;;;16.30;99.90;;;;;;4966335;28;20490;-83
2021/07/09 12:25:50;;;;;;;1.27;1.05;;;16.30;99.90;;;;;;4983296;28;20030;-82
2021/07/09 12:28:20;;;;;;;1.65;1.40;;;16.30;99.90;;;;;;4980789;28;20037;-82
2021/07/09 12:30:49;;;;;;;1.05;1.00;;;16.30;99.90;;;;;;4986062;28;20030;-82
2021/07/09 12:33:26;;;;;;;1.42;1.10;;;16.30;99.90;;;;;;4974749;28;20038;-82
2021/07/09 12:36:04;;;;;;;1.20;1.10;;;16.30;99.90;;;;;;4939461;28;20033;-82
2021/07/09 12:38:35;;;;;;;2.38;1.20;;;16.30;99.90;;;;;;4968599;28;20110;-82
2021/07/09 12:41:11;;;;;;;2.63;1.23;;;16.40;99.90;;;;;;4958701;28;20476;-82
2021/07/09 12:43:55;;;;;;;1.90;1.25;;;16.40;99.90;;;;;;4987843;28;20030;-82
2021/07/09 12:46:26;;;;;;;1.48;1.38;;;16.40;99.90;;;;;;4953204;28;20038;-82
2021/07/09 12:49:03;;;;;;;2.10;1.52;;;16.40;99.90;;;;;;4952653;28;20030;-83
2021/07/09 12:51:38;;;;;;;2.22;1.40;;;16.40;99.90;;;;;;4977969;28;20031;-83
2021/07/09 12:54:14;;;;;;;1.80;1.70;;;16.50;99.90;;;;;;4971299;28;20571;-82